Aeroporto :
LOGIN :

Iscrizione | Disclaimer

   EN    FR    IT 

 










Sommario :    VFR   VFR Marginale   IFR   IFR Intensivo   IFR Molto Intensivo
Visibilità : 
Base nubi : 
>= 8 km
>= 3000ft
5 / 8 km
1000 / 3000 ft
1500m / 5 km
500 / 1000 ft
800 / 1500m
200 / 500 ft
< 800m
< 200 ft
Simboli :   Temporali  Nebbia  Neve Forte  Precipitazioni Forti  Vento > 20 kt
SIGMETs :   Varie  Temporali  Ghiacco  Turbolenza  Onda orograficha  Ceneri Vulcaniche






- Altitudine del aeroporto : 313 ft
- Codice IATA : LEH


LFOH - Le Havre Octeville

ULTIMO METAR :
  • 210200Z AUTO 01013KT 9999 BKN014/// BKN033/// OVC064/// ///TCU 12/09 Q1011

METARs OBSOLETI :
  • 210130Z AUTO 01014KT 9999 BKN012/// BKN029/// BKN042/// ///TCU 11/10 Q1011
  • 210100Z AUTO 02012KT 9999 -RA SCT011/// BKN016/// BKN028/// ///TCU 11/10 Q1011
  • 210030Z AUTO 03012KT 5000 -RA BR SCT010/// BKN014/// BKN026/// ///TCU 11/10 Q1011
  • 210000Z AUTO 02014KT 4500 RA BR FEW010/// SCT014/// BKN022/// ///CB 10/09 Q1011
  • 202330Z AUTO 02013KT 9000 RA FEW015/// SCT020/// BKN040/// ///CB 11/08 Q1011

TAF TAF LFOH
Valido dal 20 a 12 ore il 21 a 12 ore UTC


201100Z 2012/2112 06008KT 9999 BKN030
TEMPO 2012/2022 3000 RA BKN013 BKN030
FM202200 01012KT 8000 SCT013 BKN030
TEMPO 2022/2109 33020G35KT 1500 RA BKN005 BKN030CB
ATIS : +33 2 35 54 64 93



MetMap, La meteo Aeronautica in un colpo d'occhio ! - Copyright ORBIFLY Dicembre 2007 - Disclaimer

ORBIFLY MET'MAP TEAM :

Programmazione e sviluppo : Alexandra Zaïnal
Concezione e sviluppo : Baudouin d'Aumeries
Co-Programmazione e sviluppo : Marc-Olivier Méhu
Supporto tecnico e logistico : Manuel Goepfert
Aiuto per la traduzione : Arnaldo La Scala

Contatto : metmap@orbifly.com




FONTI E CREDITI :

   NOAA